Date,TemperatureHighF,TemperatureAvgF,TemperatureLowF,DewpointHighF,DewpointAvgF,DewpointLowF,HumidityHigh,HumidityAvg,HumidityLow,PressureMaxIn,PressureMinIn,WindSpeedMaxMPH,WindSpeedAvgMPH,GustSpeedMaxMPH,PrecipitationSumIn
2013-3-1,69.0,50.3,32.0,31.0,26.9,21.0,75,45,18,30.25,30.06,12,2,23,0.00
2013-3-2,63.0,49.5,38.0,35.0,29.3,25.0,67,48,28,30.38,30.20,10,3,24,0.00
2013-3-3,75.0,58.1,40.0,43.0,33.6,27.0,66,42,24,30.22,29.85,20,5,27,0.00
2013-3-4,91.0,69.9,55.0,51.0,46.4,41.0,76,47,21,29.85,29.59,11,4,23,0.00
2013-3-5,69.0,56.6,43.0,54.0,28.5,16.0,65,38,16,30.31,29.66,18,6,34,0.00
2013-3-6,63.0,48.6,32.0,32.0,22.1,17.0,63,37,19,30.42,30.16,6,1,12,0.00
2013-3-7,72.0,56.4,42.0,53.0,42.9,32.0,76,62,39,30.19,30.01,11,3,24,0.00
2013-3-8,65.0,60.2,57.0,62.0,55.7,51.0,95,86,72,30.08,29.93,11,4,20,0.02
2013-3-9,73.0,66.1,62.0,66.0,61.5,57.0,91,85,75,29.95,29.56,17,8,35,0.20
2013-3-10,66.0,57.8,48.0,62.0,42.4,32.0,93,59,36,30.06,29.58,13,5,27,0.93
2013-3-11,69.0,50.2,35.0,39.0,30.6,22.0,92,53,22,30.14,29.94,11,2,23,0.03
2013-3-12,80.0,58.8,39.0,41.0,37.1,34.0,89,51,21,30.18,29.98,13,2,21,0.00
2013-3-13,76.0,61.5,48.0,42.0,37.1,32.0,59,42,27,30.37,30.17,7,2,15,0.00
2013-3-14,78.0,63.0,47.0,52.0,45.2,38.0,88,55,33,30.32,30.13,11,4,19,0.00
2013-3-15,81.0,67.0,54.0,54.0,49.0,42.0,87,57,30,30.16,29.90,13,6,25,0.00
2013-3-16,84.0,69.4,59.0,61.0,55.0,49.0,84,63,36,29.93,29.64,14,8,28,0.00
2013-3-17,85.0,72.0,66.0,62.0,59.8,59.0,81,67,44,29.72,29.55,15,5,23,0.00
2013-3-18,86.0,73.0,63.0,65.0,54.8,45.0,91,59,24,29.87,29.61,10,3,18,0.00
2013-3-19,84.0,65.7,49.0,63.0,51.8,43.0,83,62,41,29.93,29.74,9,2,17,0.00
2013-3-20,71.0,61.1,51.0,52.0,44.1,34.0,91,58,26,30.18,29.92,11,3,25,0.09
2013-3-21,76.0,64.3,55.0,59.0,51.7,40.0,79,64,54,29.96,29.51,16,6,31,0.09
2013-3-22,85.0,71.6,57.0,65.0,60.3,46.0,88,70,47,29.70,29.54,10,3,17,0.00
2013-3-23,81.0,60.6,50.0,60.0,51.2,45.0,90,73,41,29.74,29.51,6,2,14,0.00
2013-3-24,62.0,51.5,42.0,57.0,32.5,23.0,89,51,28,30.11,29.62,15,8,34,0.00
2013-3-25,60.0,47.4,35.0,26.0,21.8,17.0,57,38,21,30.34,30.11,8,1,16,0.00
2013-3-26,65.0,49.5,31.0,28.0,24.2,21.0,76,40,20,30.45,30.23,6,1,12,0.00
2013-3-27,68.0,56.5,44.0,47.0,37.6,25.0,63,50,37,30.26,30.07,14,5,25,0.00
2013-3-28,74.0,62.9,55.0,59.0,53.9,47.0,84,73,58,30.13,30.03,12,5,23,0.00
2013-3-29,76.0,67.7,59.0,59.0,56.7,55.0,89,70,51,30.10,29.96,13,5,22,0.00
2013-3-30,83.0,71.4,64.0,62.0,58.8,-99.9,86,69,46,30.03,29.80,15,5,24,0.00
2013-3-31,80.0,70.6,65.0,66.0,62.3,60.0,86,76,55,29.89,29.77,7,2,19,0.00